Time;durP1;ratioP1;P1;durP2;ratioP2;P2;SDS_P1;SDS_P2;PMS_P1;PMS_P2;Temp;Humidity;BMP_temperature;BMP_pressure;BME280_temperature;BME280_humidity;BME280_pressure;Samples;Min_cycle;Max_cycle;Signal;HPM_P1;HPM_P2
2022/04/29 00:01:34;;;;;;;14.80;6.00;;;;;;;;;;5024279;28;20053;-57
2022/04/29 00:04:01;;;;;;;11.60;5.68;;;;;;;;;;5023891;28;20038;-58
2022/04/29 00:06:28;;;;;;;15.68;5.95;;;;;;;;;;5025134;28;20050;-57
2022/04/29 00:08:54;;;;;;;15.05;5.85;;;;;;;;;;5023986;28;20075;-57
2022/04/29 00:11:20;;;;;;;13.40;5.88;;;;;;;;;;5024263;28;20045;-57
2022/04/29 00:13:46;;;;;;;16.42;6.10;;;;;;;;;;5024345;28;20056;-57
2022/04/29 00:16:13;;;;;;;13.60;5.60;;;;;;;;;;5024411;28;20037;-57
2022/04/29 00:18:39;;;;;;;15.65;5.70;;;;;;;;;;5023716;28;20410;-57
2022/04/29 00:21:05;;;;;;;17.13;6.82;;;;;;;;;;5023564;28;20415;-58
2022/04/29 00:23:32;;;;;;;14.00;6.30;;;;;;;;;;5024291;28;20755;-58
2022/04/29 00:25:58;;;;;;;14.73;5.43;;;;;;;;;;5024587;28;20129;-57
2022/04/29 00:28:24;;;;;;;9.68;5.55;;;;;;;;;;5024353;28;20133;-57
2022/04/29 00:30:50;;;;;;;11.20;5.45;;;;;;;;;;5023966;28;20114;-57
2022/04/29 00:33:17;;;;;;;10.32;5.93;;;;;;;;;;5023031;28;20487;-57
2022/04/29 00:35:43;;;;;;;14.25;5.63;;;;;;;;;;5024030;28;20092;-57
2022/04/29 00:38:15;;;;;;;12.38;5.45;;;;;;;;;;5024134;28;20051;-56
2022/04/29 00:40:41;;;;;;;12.77;5.65;;;;;;;;;;5023903;28;20053;-57
2022/04/29 00:43:07;;;;;;;15.77;6.45;;;;;;;;;;5022452;28;20055;-58
2022/04/29 00:45:33;;;;;;;18.45;6.15;;;;;;;;;;5023780;28;20041;-57
2022/04/29 00:47:59;;;;;;;11.35;6.15;;;;;;;;;;5023693;28;20046;-58
2022/04/29 00:50:27;;;;;;;13.35;5.53;;;;;;;;;;5024433;28;20041;-57
2022/04/29 00:52:54;;;;;;;23.48;6.57;;;;;;;;;;5023360;28;20049;-57
2022/04/29 00:55:22;;;;;;;11.82;6.20;;;;;;;;;;5023355;28;20176;-57
2022/04/29 00:57:51;;;;;;;15.68;6.38;;;;;;;;;;5023526;28;20103;-57
2022/04/29 01:00:18;;;;;;;12.82;5.60;;;;;;;;;;5023773;28;20041;-56
2022/04/29 01:02:46;;;;;;;14.30;6.28;;;;;;;;;;5005060;28;20061;-54
2022/04/29 01:05:14;;;;;;;13.73;6.28;;;;;;;;;;5005405;28;20052;-55
2022/04/29 01:07:41;;;;;;;14.18;5.68;;;;;;;;;;5023298;28;20045;-55
2022/04/29 01:10:08;;;;;;;11.05;5.70;;;;;;;;;;5023726;28;20046;-55
2022/04/29 01:12:35;;;;;;;16.67;5.75;;;;;;;;;;5023443;28;20072;-55
2022/04/29 01:15:04;;;;;;;10.38;5.25;;;;;;;;;;5023694;28;20057;-55
2022/04/29 01:17:30;;;;;;;13.00;5.95;;;;;;;;;;5022725;28;20133;-57
2022/04/29 01:19:56;;;;;;;19.60;6.18;;;;;;;;;;5023979;28;20049;-57
2022/04/29 01:22:22;;;;;;;10.15;5.47;;;;;;;;;;5023261;28;20064;-57
2022/04/29 01:24:50;;;;;;;14.75;6.03;;;;;;;;;;5023269;28;20041;-57
2022/04/29 01:27:16;;;;;;;13.27;5.95;;;;;;;;;;5023087;28;20053;-57
2022/04/29 01:29:43;;;;;;;17.90;6.55;;;;;;;;;;5023447;28;20124;-57
2022/04/29 01:32:09;;;;;;;12.75;6.43;;;;;;;;;;5023251;28;20049;-57
2022/04/29 01:34:36;;;;;;;17.45;7.25;;;;;;;;;;5022569;28;20053;-58
2022/04/29 01:37:03;;;;;;;10.43;5.50;;;;;;;;;;5023742;28;20119;-58
2022/04/29 01:39:29;;;;;;;10.65;5.85;;;;;;;;;;5022945;28;20519;-57
2022/04/29 01:41:55;;;;;;;13.65;6.95;;;;;;;;;;5023672;28;20037;-57
2022/04/29 01:44:22;;;;;;;13.82;5.95;;;;;;;;;;5023347;28;20507;-57
2022/04/29 01:46:48;;;;;;;12.10;5.50;;;;;;;;;;5023172;28;20049;-57
2022/04/29 01:49:15;;;;;;;14.13;5.95;;;;;;;;;;5022432;28;20048;-57
2022/04/29 01:51:42;;;;;;;11.85;6.13;;;;;;;;;;5022442;28;20056;-57
2022/04/29 01:54:14;;;;;;;13.02;6.22;;;;;;;;;;5024580;28;20732;-57
2022/04/29 01:56:41;;;;;;;13.43;6.20;;;;;;;;;;5026944;28;20096;-57
2022/04/29 01:59:07;;;;;;;7.93;4.88;;;;;;;;;;5027306;28;20048;-57
2022/04/29 02:01:34;;;;;;;16.10;5.95;;;;;;;;;;5026159;28;20049;-57
2022/04/29 02:04:01;;;;;;;15.35;5.57;;;;;;;;;;5026560;28;20140;-57
2022/04/29 02:06:27;;;;;;;15.00;6.03;;;;;;;;;;5027200;28;20111;-57
2022/04/29 02:08:54;;;;;;;10.98;5.22;;;;;;;;;;5026793;28;20052;-57
2022/04/29 02:11:20;;;;;;;12.23;5.05;;;;;;;;;;5026824;28;20100;-57
2022/04/29 02:13:47;;;;;;;11.15;5.25;;;;;;;;;;5026037;28;20095;-57
2022/04/29 02:16:14;;;;;;;20.38;5.55;;;;;;;;;;5026747;28;20053;-57
2022/04/29 02:18:41;;;;;;;14.23;5.88;;;;;;;;;;5025592;28;20119;-57
2022/04/29 02:21:07;;;;;;;14.07;5.38;;;;;;;;;;5025416;28;20041;-57
2022/04/29 02:23:33;;;;;;;12.40;5.80;;;;;;;;;;5025191;28;20488;-57
2022/04/29 02:26:00;;;;;;;12.88;5.97;;;;;;;;;;5027054;28;20037;-56
2022/04/29 02:28:27;;;;;;;14.85;6.35;;;;;;;;;;5026926;28;20045;-57
2022/04/29 02:30:55;;;;;;;11.35;5.95;;;;;;;;;;5026237;28;20095;-57
2022/04/29 02:33:21;;;;;;;11.93;6.17;;;;;;;;;;5025194;28;20053;-57
2022/04/29 02:35:48;;;;;;;16.02;6.40;;;;;;;;;;5025372;28;20295;-57
2022/04/29 02:38:14;;;;;;;15.80;6.35;;;;;;;;;;5026479;28;20049;-57
2022/04/29 02:40:40;;;;;;;13.07;5.65;;;;;;;;;;5026183;28;20044;-57
2022/04/29 02:43:07;;;;;;;10.35;5.93;;;;;;;;;;5008582;28;20053;-57
2022/04/29 02:45:33;;;;;;;14.90;6.70;;;;;;;;;;5008385;28;20041;-58
2022/04/29 02:47:59;;;;;;;12.15;5.90;;;;;;;;;;5025136;28;20045;-57
2022/04/29 02:50:26;;;;;;;14.20;6.43;;;;;;;;;;5026683;28;20103;-58
2022/04/29 02:52:52;;;;;;;12.43;7.25;;;;;;;;;;5034645;28;20053;-57
2022/04/29 02:55:18;;;;;;;15.65;5.90;;;;;;;;;;5046017;28;20491;-58
2022/04/29 02:57:44;;;;;;;13.10;6.05;;;;;;;;;;5045600;28;20045;-57
2022/04/29 03:00:11;;;;;;;15.18;6.13;;;;;;;;;;5028046;28;20526;-57
2022/04/29 03:02:37;;;;;;;11.85;6.05;;;;;;;;;;5044559;28;20033;-57
2022/04/29 03:05:05;;;;;;;16.48;6.25;;;;;;;;;;5045104;28;20060;-57
2022/04/29 03:07:33;;;;;;;18.30;6.35;;;;;;;;;;5045559;28;20178;-58
2022/04/29 03:09:59;;;;;;;12.13;5.97;;;;;;;;;;5045763;28;20041;-57
2022/04/29 03:12:25;;;;;;;11.18;5.93;;;;;;;;;;5046060;28;20056;-57
2022/04/29 03:14:52;;;;;;;15.38;5.90;;;;;;;;;;5045481;28;20041;-57
2022/04/29 03:20:04;;;;;;;13.25;6.20;;;;;;;;;;5045148;28;20402;-58
2022/04/29 03:22:30;;;;;;;22.08;6.35;;;;;;;;;;5045553;28;20049;-57
2022/04/29 03:24:56;;;;;;;15.73;6.38;;;;;;;;;;5045768;28;20502;-57
2022/04/29 03:27:22;;;;;;;14.55;7.15;;;;;;;;;;5045503;28;20047;-57
2022/04/29 03:29:49;;;;;;;13.10;6.10;;;;;;;;;;5044920;28;20059;-57
2022/04/29 03:32:15;;;;;;;14.63;6.07;;;;;;;;;;5044695;28;20681;-57
2022/04/29 03:34:41;;;;;;;17.40;6.32;;;;;;;;;;5045396;28;20116;-57
2022/04/29 03:37:07;;;;;;;15.38;7.15;;;;;;;;;;5045264;28;20490;-57
2022/04/29 03:39:33;;;;;;;13.30;6.13;;;;;;;;;;5045036;28;20033;-58
2022/04/29 03:41:59;;;;;;;12.65;6.45;;;;;;;;;;5027044;28;20060;-58
2022/04/29 03:44:25;;;;;;;14.82;6.63;;;;;;;;;;5045422;28;20049;-57
2022/04/29 03:46:51;;;;;;;15.93;6.88;;;;;;;;;;5026824;28;20049;-57
2022/04/29 03:49:36;;;;;;;14.45;6.55;;;;;;;;;;5044101;28;20052;-56
2022/04/29 03:52:02;;;;;;;14.90;6.25;;;;;;;;;;5044232;28;20123;-57
2022/04/29 03:54:28;;;;;;;21.38;6.75;;;;;;;;;;5045177;28;20047;-57
2022/04/29 03:56:54;;;;;;;14.23;6.82;;;;;;;;;;5044600;28;20052;-57
2022/04/29 03:59:21;;;;;;;11.55;6.13;;;;;;;;;;5045072;28;20083;-57
2022/04/29 04:01:47;;;;;;;15.95;6.63;;;;;;;;;;5044435;28;20045;-57
2022/04/29 04:04:13;;;;;;;15.60;6.47;;;;;;;;;;5043452;28;20071;-57
2022/04/29 04:06:49;;;;;;;18.05;6.93;;;;;;;;;;5044353;28;20084;-57
2022/04/29 04:09:16;;;;;;;14.65;5.70;;;;;;;;;;5044363;28;20124;-57
2022/04/29 04:11:42;;;;;;;12.98;5.60;;;;;;;;;;5044573;28;20041;-57
2022/04/29 04:14:09;;;;;;;11.45;4.95;;;;;;;;;;5044091;28;20040;-57
2022/04/29 04:16:36;;;;;;;10.20;5.03;;;;;;;;;;5043923;28;20051;-56
2022/04/29 04:19:03;;;;;;;8.52;5.28;;;;;;;;;;5043166;28;20171;-57
2022/04/29 04:21:29;;;;;;;15.70;6.63;;;;;;;;;;5044778;28;20037;-56
2022/04/29 04:23:55;;;;;;;13.98;6.30;;;;;;;;;;5043980;28;20048;-57
2022/04/29 04:26:21;;;;;;;10.88;6.20;;;;;;;;;;5044289;28;20037;-56
2022/04/29 04:28:48;;;;;;;14.38;6.30;;;;;;;;;;5044267;28;20124;-57
2022/04/29 04:31:14;;;;;;;13.40;6.15;;;;;;;;;;5043995;28;20483;-57
2022/04/29 04:33:40;;;;;;;14.18;6.82;;;;;;;;;;5042920;28;20064;-56
2022/04/29 04:36:09;;;;;;;14.82;6.32;;;;;;;;;;5043270;28;20544;-57
2022/04/29 04:38:36;;;;;;;15.85;6.85;;;;;;;;;;5043762;28;20052;-57
2022/04/29 04:41:03;;;;;;;10.90;5.35;;;;;;;;;;5043955;28;20061;-57
2022/04/29 04:43:29;;;;;;;10.95;6.03;;;;;;;;;;5044399;28;20091;-56
2022/04/29 04:45:56;;;;;;;14.52;6.45;;;;;;;;;;5044370;28;20041;-57
2022/04/29 04:48:22;;;;;;;12.25;5.57;;;;;;;;;;5042763;28;20052;-57
2022/04/29 04:50:48;;;;;;;12.63;5.80;;;;;;;;;;5043277;28;20081;-56
2022/04/29 04:53:14;;;;;;;12.45;6.20;;;;;;;;;;5043521;28;20510;-57
2022/04/29 04:55:40;;;;;;;12.70;6.10;;;;;;;;;;5043649;28;20054;-57
2022/04/29 04:58:08;;;;;;;12.50;6.47;;;;;;;;;;5043670;28;20044;-57
2022/04/29 05:00:35;;;;;;;14.07;6.50;;;;;;;;;;5043507;28;20048;-57
2022/04/29 05:03:01;;;;;;;12.35;6.63;;;;;;;;;;5043135;28;20367;-58
2022/04/29 05:05:28;;;;;;;17.02;6.60;;;;;;;;;;5040301;28;20077;-57
2022/04/29 05:07:54;;;;;;;18.98;7.22;;;;;;;;;;5023461;28;20136;-55
2022/04/29 05:10:20;;;;;;;15.52;5.93;;;;;;;;;;5023045;28;20052;-57
2022/04/29 05:12:47;;;;;;;16.65;6.38;;;;;;;;;;5023381;28;20132;-57
2022/04/29 05:15:14;;;;;;;18.80;7.00;;;;;;;;;;5023624;28;20037;-57
2022/04/29 05:17:40;;;;;;;18.38;6.45;;;;;;;;;;5022557;28;20077;-55
2022/04/29 05:20:08;;;;;;;10.38;5.88;;;;;;;;;;5023453;28;20099;-57
2022/04/29 05:22:34;;;;;;;14.57;5.75;;;;;;;;;;5023198;28;20057;-57
2022/04/29 05:25:00;;;;;;;20.67;5.97;;;;;;;;;;5024070;28;20048;-58
2022/04/29 05:27:26;;;;;;;12.13;6.20;;;;;;;;;;5023790;28;20394;-57
2022/04/29 05:29:52;;;;;;;14.40;5.28;;;;;;;;;;5026232;28;20048;-57
2022/04/29 05:32:19;;;;;;;14.27;5.90;;;;;;;;;;5027112;28;20128;-57
2022/04/29 05:34:47;;;;;;;11.55;5.75;;;;;;;;;;5027089;28;20136;-58
2022/04/29 05:37:14;;;;;;;18.33;6.32;;;;;;;;;;5027167;28;20091;-56
2022/04/29 05:42:25;;;;;;;15.73;6.28;;;;;;;;;;5027592;28;20132;-56
2022/04/29 05:44:51;;;;;;;12.75;5.53;;;;;;;;;;5027259;28;20527;-56
2022/04/29 05:47:18;;;;;;;13.65;4.95;;;;;;;;;;5026844;28;20088;-56
2022/04/29 05:49:44;;;;;;;12.45;4.85;;;;;;;;;;5027462;28;20053;-56
2022/04/29 05:52:10;;;;;;;12.93;6.18;;;;;;;;;;5027630;28;20049;-56
2022/04/29 05:54:37;;;;;;;13.10;5.47;;;;;;;;;;5026561;28;20041;-56
2022/04/29 05:57:04;;;;;;;14.27;5.47;;;;;;;;;;5027044;28;20041;-56
2022/04/29 05:59:31;;;;;;;10.73;5.35;;;;;;;;;;5027118;28;20049;-57
2022/04/29 06:01:57;;;;;;;12.48;5.45;;;;;;;;;;5027202;28;20476;-56
2022/04/29 06:04:23;;;;;;;15.88;5.70;;;;;;;;;;5026546;28;20200;-56
2022/04/29 06:06:50;;;;;;;13.18;5.72;;;;;;;;;;5035188;28;20045;-56
2022/04/29 06:09:16;;;;;;;10.73;5.43;;;;;;;;;;5046224;28;20037;-56
2022/04/29 06:11:42;;;;;;;12.35;4.93;;;;;;;;;;5045750;28;20533;-57
2022/04/29 06:14:08;;;;;;;15.02;5.70;;;;;;;;;;5033759;28;20041;-56
2022/04/29 06:16:34;;;;;;;16.35;5.05;;;;;;;;;;5024850;28;20125;-57
2022/04/29 06:19:01;;;;;;;13.30;5.22;;;;;;;;;;5027653;28;20041;-56
2022/04/29 06:21:27;;;;;;;13.75;5.45;;;;;;;;;;5027616;28;20183;-57
2022/04/29 06:23:53;;;;;;;11.18;5.15;;;;;;;;;;5026526;28;20785;-57
2022/04/29 06:26:20;;;;;;;10.27;5.10;;;;;;;;;;5026408;28;20447;-57
2022/04/29 06:28:46;;;;;;;12.15;6.22;;;;;;;;;;5045185;28;20052;-57
2022/04/29 06:31:12;;;;;;;17.70;5.38;;;;;;;;;;5043622;28;20487;-55
2022/04/29 06:33:38;;;;;;;13.65;5.72;;;;;;;;;;5025315;28;20128;-57
2022/04/29 06:36:06;;;;;;;10.38;4.97;;;;;;;;;;5026677;28;20156;-57
2022/04/29 06:38:32;;;;;;;12.20;5.80;;;;;;;;;;5026326;28;20064;-57
2022/04/29 06:40:59;;;;;;;14.95;6.00;;;;;;;;;;5025623;28;20067;-56
2022/04/29 06:43:25;;;;;;;13.38;5.15;;;;;;;;;;5026802;28;20116;-56
2022/04/29 06:45:51;;;;;;;15.98;5.40;;;;;;;;;;5026358;28;20050;-57
2022/04/29 06:48:18;;;;;;;13.07;5.72;;;;;;;;;;5025674;28;20132;-56
2022/04/29 06:50:44;;;;;;;12.55;5.95;;;;;;;;;;5025603;28;20045;-56
2022/04/29 06:53:10;;;;;;;12.45;4.85;;;;;;;;;;5026653;28;20123;-57
2022/04/29 06:55:37;;;;;;;13.23;5.40;;;;;;;;;;5026058;28;20052;-56
2022/04/29 06:58:03;;;;;;;10.70;5.13;;;;;;;;;;5026017;28;20079;-57
2022/04/29 07:00:29;;;;;;;9.50;4.57;;;;;;;;;;5026693;28;20041;-56
2022/04/29 07:02:57;;;;;;;10.25;4.68;;;;;;;;;;5025480;28;20053;-56
2022/04/29 07:05:23;;;;;;;10.85;4.97;;;;;;;;;;5026093;28;20088;-56
2022/04/29 07:07:50;;;;;;;14.85;5.60;;;;;;;;;;5026144;28;20056;-56
2022/04/29 07:10:17;;;;;;;9.52;5.10;;;;;;;;;;5025953;28;20033;-57
2022/04/29 07:12:44;;;;;;;14.52;4.57;;;;;;;;;;5025512;28;20037;-56
2022/04/29 07:15:13;;;;;;;9.63;4.30;;;;;;;;;;5025785;28;20049;-57
2022/04/29 07:17:39;;;;;;;12.35;4.47;;;;;;;;;;5025152;28;20053;-56
2022/04/29 07:20:07;;;;;;;12.07;4.57;;;;;;;;;;5026011;28;20128;-56
2022/04/29 07:22:33;;;;;;;10.32;4.65;;;;;;;;;;5025768;28;20041;-57
2022/04/29 07:25:00;;;;;;;9.77;4.18;;;;;;;;;;5025545;28;20099;-56
2022/04/29 07:27:28;;;;;;;9.88;3.95;;;;;;;;;;5025814;28;20518;-56
2022/04/29 07:29:54;;;;;;;11.32;4.13;;;;;;;;;;5025530;28;20395;-56
2022/04/29 07:32:20;;;;;;;12.63;4.40;;;;;;;;;;5024887;28;20487;-57
2022/04/29 07:43:01;;;;;;;13.00;3.33;;;;;;;;;;5025438;28;20041;-57
2022/04/29 07:45:28;;;;;;;6.25;3.15;;;;;;;;;;5025965;28;20472;-56
2022/04/29 07:47:56;;;;;;;5.68;3.10;;;;;;;;;;5024871;28;20049;-56
2022/04/29 07:50:22;;;;;;;7.03;2.95;;;;;;;;;;5024444;28;20561;-56
2022/04/29 07:52:48;;;;;;;11.80;3.42;;;;;;;;;;5007093;28;21018;-56
2022/04/29 07:55:14;;;;;;;5.15;2.83;;;;;;;;;;5025419;28;20117;-56
2022/04/29 07:57:40;;;;;;;8.57;3.10;;;;;;;;;;5024799;28;20124;-56
2022/04/29 08:00:07;;;;;;;6.43;3.03;;;;;;;;;;5025107;28;20072;-56
2022/04/29 08:02:33;;;;;;;9.43;3.85;;;;;;;;;;5023534;28;20103;-56
2022/04/29 08:04:59;;;;;;;6.75;3.28;;;;;;;;;;5024929;28;20062;-56
2022/04/29 08:07:25;;;;;;;7.03;3.58;;;;;;;;;;5025593;28;20491;-56
2022/04/29 08:09:51;;;;;;;6.57;4.28;;;;;;;;;;5024873;28;20041;-56
2022/04/29 08:12:17;;;;;;;7.45;3.72;;;;;;;;;;5024339;28;20123;-56
2022/04/29 08:14:44;;;;;;;6.82;3.28;;;;;;;;;;5024113;28;20124;-56
2022/04/29 08:17:10;;;;;;;7.18;3.08;;;;;;;;;;5024217;28;20095;-57
2022/04/29 08:19:36;;;;;;;10.02;3.28;;;;;;;;;;5024700;28;20045;-57
2022/04/29 08:22:03;;;;;;;10.88;3.13;;;;;;;;;;5024621;28;20124;-57
2022/04/29 08:24:29;;;;;;;15.25;3.35;;;;;;;;;;5024373;28;20103;-57
2022/04/29 08:26:55;;;;;;;8.30;3.92;;;;;;;;;;5024955;28;20140;-56
2022/04/29 08:29:21;;;;;;;7.72;2.83;;;;;;;;;;5006805;28;20128;-56
2022/04/29 08:31:48;;;;;;;9.18;2.90;;;;;;;;;;5023121;28;20072;-56
2022/04/29 08:34:17;;;;;;;8.60;3.35;;;;;;;;;;5024378;28;20053;-56
2022/04/29 08:36:44;;;;;;;5.35;3.33;;;;;;;;;;5023577;28;20449;-56
2022/04/29 08:39:10;;;;;;;6.18;3.60;;;;;;;;;;5024371;28;20143;-56
2022/04/29 08:41:38;;;;;;;9.55;3.58;;;;;;;;;;5024511;28;20045;-56
2022/04/29 08:44:08;;;;;;;7.53;3.42;;;;;;;;;;5024564;28;20060;-56
2022/04/29 08:46:34;;;;;;;5.47;3.42;;;;;;;;;;5022469;28;20038;-57
2022/04/29 08:49:02;;;;;;;9.43;3.67;;;;;;;;;;5024287;28;20057;-57
2022/04/29 08:51:29;;;;;;;5.40;3.55;;;;;;;;;;5024350;28;20546;-56
2022/04/29 08:53:57;;;;;;;7.35;3.80;;;;;;;;;;5024245;28;20406;-57
2022/04/29 08:59:10;;;;;;;10.98;3.42;;;;;;;;;;5024082;28;20056;-57
2022/04/29 09:01:38;;;;;;;7.30;3.10;;;;;;;;;;5022629;28;20408;-57
2022/04/29 09:04:05;;;;;;;8.32;2.90;;;;;;;;;;5005910;28;20494;-57
2022/04/29 09:06:31;;;;;;;7.40;2.88;;;;;;;;;;5023516;28;20049;-57
2022/04/29 09:09:07;;;;;;;4.90;2.65;;;;;;;;;;5006876;28;20552;-56
2022/04/29 09:11:34;;;;;;;8.13;3.45;;;;;;;;;;5023356;28;20057;-57
2022/04/29 09:14:18;;;;;;;5.32;2.70;;;;;;;;;;5024287;28;20038;-58
2022/04/29 09:16:45;;;;;;;8.77;2.90;;;;;;;;;;5022809;28;20569;-57
2022/04/29 09:19:28;;;;;;;6.07;3.20;;;;;;;;;;5006283;28;20049;-56
2022/04/29 09:22:05;;;;;;;9.57;2.60;;;;;;;;;;5023043;28;20403;-56
2022/04/29 09:24:31;;;;;;;5.93;3.03;;;;;;;;;;5023663;28;20048;-57
2022/04/29 09:27:01;;;;;;;9.65;2.50;;;;;;;;;;5024011;28;20044;-56
2022/04/29 09:29:28;;;;;;;6.47;2.92;;;;;;;;;;5024123;28;20053;-57
2022/04/29 09:31:56;;;;;;;7.07;2.90;;;;;;;;;;5022516;28;20038;-56
2022/04/29 09:34:23;;;;;;;7.63;3.40;;;;;;;;;;5023785;28;20042;-56
2022/04/29 09:36:49;;;;;;;4.18;2.50;;;;;;;;;;5023490;28;20588;-56
2022/04/29 09:39:28;;;;;;;7.88;2.95;;;;;;;;;;5023433;28;20125;-56
2022/04/29 09:41:56;;;;;;;6.63;3.00;;;;;;;;;;5023410;28;20120;-57
2022/04/29 09:44:30;;;;;;;6.47;2.88;;;;;;;;;;5023699;28;20052;-56
2022/04/29 09:46:57;;;;;;;7.95;2.70;;;;;;;;;;5022869;28;20045;-56
2022/04/29 09:49:28;;;;;;;5.97;2.17;;;;;;;;;;5022907;28;20128;-56
2022/04/29 09:51:54;;;;;;;6.40;2.90;;;;;;;;;;5023296;28;20053;-56
2022/04/29 09:54:25;;;;;;;7.57;2.70;;;;;;;;;;5023402;28;20060;-57
2022/04/29 09:57:05;;;;;;;5.43;2.47;;;;;;;;;;5005214;28;20056;-57
2022/04/29 09:59:33;;;;;;;8.23;2.90;;;;;;;;;;5023379;28;20610;-57
2022/04/29 10:02:00;;;;;;;4.47;2.53;;;;;;;;;;5023031;28;20510;-57
2022/04/29 10:04:26;;;;;;;7.18;2.60;;;;;;;;;;5023571;28;20053;-56
2022/04/29 10:06:53;;;;;;;8.18;2.83;;;;;;;;;;5023156;28;20172;-56
2022/04/29 10:09:20;;;;;;;7.20;2.08;;;;;;;;;;5022759;28;20095;-57
2022/04/29 10:11:46;;;;;;;7.00;2.55;;;;;;;;;;5022437;28;20072;-56
2022/04/29 10:14:15;;;;;;;7.68;2.40;;;;;;;;;;5023321;28;20100;-56
2022/04/29 10:16:45;;;;;;;8.50;2.80;;;;;;;;;;5026276;28;20129;-57
2022/04/29 10:22:00;;;;;;;5.93;2.22;;;;;;;;;;5027125;28;20162;-56
2022/04/29 10:24:26;;;;;;;;;;;;;;;;;;5027458;28;20049;-56
2022/04/29 10:26:54;;;;;;;8.10;2.22;;;;;;;;;;5025909;28;19928;-57
2022/04/29 10:29:20;;;;;;;8.57;2.10;;;;;;;;;;5027211;28;20554;-56
2022/04/29 10:32:05;;;;;;;4.57;2.30;;;;;;;;;;5025602;28;20041;-56
2022/04/29 10:34:31;;;;;;;5.15;1.90;;;;;;;;;;5026196;28;20045;-57
2022/04/29 10:36:59;;;;;;;5.47;2.10;;;;;;;;;;5026478;28;20395;-56
2022/04/29 10:39:25;;;;;;;8.70;2.40;;;;;;;;;;5026407;28;20082;-56
2022/04/29 10:41:58;;;;;;;10.48;2.63;;;;;;;;;;5031142;28;20498;-56
2022/04/29 10:44:24;;;;;;;6.38;1.80;;;;;;;;;;5045994;28;20119;-56
2022/04/29 10:46:50;;;;;;;6.20;2.72;;;;;;;;;;5045130;28;20045;-56
2022/04/29 10:49:23;;;;;;;6.60;2.13;;;;;;;;;;5046314;28;20407;-56
2022/04/29 10:51:50;;;;;;;10.15;2.75;;;;;;;;;;5046224;28;20044;-57
2022/04/29 10:54:37;;;;;;;6.03;2.58;;;;;;;;;;5046351;28;20562;-56
2022/04/29 10:57:06;;;;;;;6.43;2.65;;;;;;;;;;5045686;28;20483;-57
2022/04/29 10:59:51;;;;;;;5.50;2.70;;;;;;;;;;5045933;28;20049;-56
2022/04/29 11:02:25;;;;;;;6.47;2.95;;;;;;;;;;5044698;28;20127;-57
2022/04/29 11:04:51;;;;;;;7.05;2.50;;;;;;;;;;5045530;28;20053;-57
2022/04/29 11:07:35;;;;;;;7.32;2.67;;;;;;;;;;5046070;28;20118;-56
2022/04/29 11:10:02;;;;;;;13.50;3.40;;;;;;;;;;5045227;28;20589;-57
2022/04/29 11:12:30;;;;;;;6.72;2.97;;;;;;;;;;5046096;28;20506;-56
2022/04/29 11:14:56;;;;;;;;;;;;;;;;;;5046811;28;20565;-57
2022/04/29 11:17:34;;;;;;;6.57;3.00;;;;;;;;;;5045439;28;20012;-56
2022/04/29 11:20:12;;;;;;;5.22;3.00;;;;;;;;;;5045500;28;20040;-57
2022/04/29 11:25:23;;;;;;;5.45;2.80;;;;;;;;;;5044897;28;20053;-57
2022/04/29 11:27:51;;;;;;;7.80;3.20;;;;;;;;;;5044917;28;20494;-57
2022/04/29 11:30:18;;;;;;;5.82;3.28;;;;;;;;;;5045849;28;20041;-55
2022/04/29 11:32:44;;;;;;;7.32;3.65;;;;;;;;;;5044561;28;20063;-57
2022/04/29 11:35:10;;;;;;;8.63;3.22;;;;;;;;;;5045042;28;20076;-57
2022/04/29 11:37:36;;;;;;;4.45;3.17;;;;;;;;;;5044656;28;20129;-57
2022/04/29 11:40:07;;;;;;;7.57;3.92;;;;;;;;;;5045466;28;20055;-56
2022/04/29 11:42:33;;;;;;;6.93;3.60;;;;;;;;;;5045109;28;20467;-57
2022/04/29 11:45:05;;;;;;;6.97;3.70;;;;;;;;;;5045821;28;20602;-56
2022/04/29 11:47:32;;;;;;;7.28;3.80;;;;;;;;;;5044139;28;20095;-57
2022/04/29 11:49:58;;;;;;;9.88;4.43;;;;;;;;;;5036558;28;20814;-56
2022/04/29 11:52:26;;;;;;;7.35;3.70;;;;;;;;;;5041280;28;20045;-57
2022/04/29 11:54:53;;;;;;;14.68;4.57;;;;;;;;;;5028177;28;20483;-56
2022/04/29 11:57:19;;;;;;;10.18;3.80;;;;;;;;;;5029291;28;20040;-57
2022/04/29 11:59:46;;;;;;;9.68;4.20;;;;;;;;;;5028702;28;20106;-57
2022/04/29 12:02:15;;;;;;;9.60;3.17;;;;;;;;;;5031313;28;20037;-56
2022/04/29 12:04:56;;;;;;;7.55;3.95;;;;;;;;;;5031121;28;20058;-56
2022/04/29 12:07:23;;;;;;;11.20;4.07;;;;;;;;;;5031326;28;20487;-56
2022/04/29 12:09:50;;;;;;;8.23;3.78;;;;;;;;;;5027557;28;20539;-56
2022/04/29 12:12:23;;;;;;;7.05;3.38;;;;;;;;;;5035348;28;20095;-56
2022/04/29 12:14:49;;;;;;;10.15;4.20;;;;;;;;;;5028169;28;20133;-57
2022/04/29 12:17:16;;;;;;;8.73;4.20;;;;;;;;;;5033122;28;20427;-56
2022/04/29 12:19:43;;;;;;;8.38;4.47;;;;;;;;;;5029118;28;20056;-56
2022/04/29 12:22:09;;;;;;;8.45;4.28;;;;;;;;;;5039008;28;20071;-55
2022/04/29 12:24:43;;;;;;;12.18;4.60;;;;;;;;;;5034303;28;20069;-56
2022/04/29 12:27:10;;;;;;;12.55;4.50;;;;;;;;;;5029665;28;20475;-57
2022/04/29 12:29:39;;;;;;;10.85;4.10;;;;;;;;;;5021171;28;20053;-57
2022/04/29 12:35:06;;;;;;;12.23;4.30;;;;;;;;;;5037569;28;20128;-55
2022/04/29 12:37:32;;;;;;;8.68;5.07;;;;;;;;;;5040940;28;20075;-57
2022/04/29 12:40:08;;;;;;;13.73;4.47;;;;;;;;;;5040721;28;20068;-56
2022/04/29 12:42:34;;;;;;;8.25;4.20;;;;;;;;;;5040937;28;20044;-57
2022/04/29 12:45:04;;;;;;;10.40;3.90;;;;;;;;;;5040105;28;20045;-57
2022/04/29 12:47:38;;;;;;;6.05;4.22;;;;;;;;;;5039899;28;20144;-57
2022/04/29 12:50:25;;;;;;;8.63;4.35;;;;;;;;;;5041412;28;20486;-56
2022/04/29 12:53:01;;;;;;;8.43;3.72;;;;;;;;;;5041087;28;20502;-57
2022/04/29 12:55:30;;;;;;;5.60;4.55;;;;;;;;;;5044212;28;20115;-56
2022/04/29 12:58:04;;;;;;;7.07;4.00;;;;;;;;;;5043703;28;20048;-57
2022/04/29 13:00:31;;;;;;;10.13;3.50;;;;;;;;;;5042893;28;20502;-57
2022/04/29 13:03:01;;;;;;;6.43;3.67;;;;;;;;;;5044517;28;20049;-56
2022/04/29 13:05:28;;;;;;;7.97;3.33;;;;;;;;;;5026261;28;20056;-57
2022/04/29 13:07:55;;;;;;;10.45;3.83;;;;;;;;;;5043586;28;20044;-56
2022/04/29 13:10:21;;;;;;;6.93;3.85;;;;;;;;;;5043339;28;20578;-56
2022/04/29 13:12:48;;;;;;;8.35;3.95;;;;;;;;;;5043252;28;20041;-57
2022/04/29 13:15:14;;;;;;;10.20;4.40;;;;;;;;;;5043568;28;20487;-56
2022/04/29 13:17:40;;;;;;;8.10;3.63;;;;;;;;;;5024367;28;20048;-57
2022/04/29 13:20:08;;;;;;;9.13;3.72;;;;;;;;;;5023446;28;20041;-57
2022/04/29 13:22:35;;;;;;;7.28;4.00;;;;;;;;;;5023662;28;20100;-57
2022/04/29 13:25:01;;;;;;;8.70;3.85;;;;;;;;;;5023338;28;20076;-57
2022/04/29 13:27:29;;;;;;;7.22;3.70;;;;;;;;;;5024200;28;20075;-57
2022/04/29 13:29:55;;;;;;;7.38;3.72;;;;;;;;;;5024012;28;20502;-56
2022/04/29 13:32:22;;;;;;;6.10;4.10;;;;;;;;;;5022315;28;20107;-57
2022/04/29 13:34:51;;;;;;;6.63;3.40;;;;;;;;;;5023256;28;20049;-57
2022/04/29 13:37:19;;;;;;;7.68;3.08;;;;;;;;;;5023561;28;20053;-57
2022/04/29 13:39:46;;;;;;;6.95;3.28;;;;;;;;;;5023413;28;20049;-57
2022/04/29 13:42:13;;;;;;;11.98;3.65;;;;;;;;;;5022796;28;20127;-57
2022/04/29 13:44:40;;;;;;;6.93;2.90;;;;;;;;;;5023496;28;20073;-56
2022/04/29 13:47:07;;;;;;;6.82;3.33;;;;;;;;;;5022570;28;20072;-57
2022/04/29 13:49:34;;;;;;;6.85;3.03;;;;;;;;;;5023893;28;20046;-57
2022/04/29 13:53:07;;;;;;;5.22;3.42;;;;;;;;;;5027539;28;20033;-57
2022/04/29 13:54:46;;;;;;;3.17;2.20;;;;;;;;;;5027076;28;20049;-57
2022/04/29 13:57:12;;;;;;;4.43;2.55;;;;;;;;;;5026770;28;20462;-56
2022/04/29 13:59:38;;;;;;;6.38;2.63;;;;;;;;;;5026885;28;20046;-57
2022/04/29 14:02:05;;;;;;;7.43;2.70;;;;;;;;;;5026015;28;20049;-57
2022/04/29 14:04:31;;;;;;;7.30;2.95;;;;;;;;;;5026556;28;20053;-57
2022/04/29 14:06:57;;;;;;;6.95;2.58;;;;;;;;;;5027458;28;20049;-56
2022/04/29 14:09:23;;;;;;;4.50;2.58;;;;;;;;;;5026929;28;20542;-57
2022/04/29 14:11:50;;;;;;;7.53;2.40;;;;;;;;;;5026884;28;20046;-57
2022/04/29 14:14:16;;;;;;;3.50;2.55;;;;;;;;;;5008485;28;20053;-55
2022/04/29 14:16:42;;;;;;;6.57;2.80;;;;;;;;;;5025833;28;20037;-57
2022/04/29 14:19:08;;;;;;;5.53;2.40;;;;;;;;;;5026903;28;20132;-57
2022/04/29 14:21:34;;;;;;;4.35;2.13;;;;;;;;;;5026543;28;20034;-57
2022/04/29 14:24:01;;;;;;;6.97;2.60;;;;;;;;;;5026797;28;20049;-57
2022/04/29 14:26:27;;;;;;;5.45;2.10;;;;;;;;;;5026908;28;20041;-57
2022/04/29 14:28:53;;;;;;;6.30;2.53;;;;;;;;;;5026511;28;20110;-57
2022/04/29 14:31:19;;;;;;;7.00;2.65;;;;;;;;;;5025666;28;20408;-57
2022/04/29 14:33:46;;;;;;;4.40;2.35;;;;;;;;;;5026729;28;20156;-57
2022/04/29 14:36:13;;;;;;;4.35;2.33;;;;;;;;;;5026501;28;20045;-57
2022/04/29 14:38:39;;;;;;;7.63;2.28;;;;;;;;;;5026458;28;20084;-56
2022/04/29 14:41:05;;;;;;;8.35;2.63;;;;;;;;;;5026161;28;20087;-57
2022/04/29 14:43:31;;;;;;;3.92;2.65;;;;;;;;;;5025584;28;20104;-57
2022/04/29 14:45:58;;;;;;;5.90;2.63;;;;;;;;;;5022122;28;20045;-56
2022/04/29 14:48:24;;;;;;;9.43;2.83;;;;;;;;;;5022664;28;20053;-57
2022/04/29 14:50:53;;;;;;;8.00;2.40;;;;;;;;;;5027639;28;20296;-57
2022/04/29 14:53:19;;;;;;;4.40;2.58;;;;;;;;;;5042368;28;20049;-57
2022/04/29 14:55:45;;;;;;;5.40;2.40;;;;;;;;;;5042146;28;20041;-56
2022/04/29 14:58:11;;;;;;;4.45;2.85;;;;;;;;;;5038955;28;20144;-57
2022/04/29 15:00:37;;;;;;;6.57;2.70;;;;;;;;;;5029449;28;20110;-57
2022/04/29 15:03:04;;;;;;;5.15;2.20;;;;;;;;;;5030732;28;21097;-57